sensor_id;sensor_type;location;lat;lon;timestamp;P1;durP1;ratioP1;P2;durP2;ratioP2
1999;SDS011;1001;48.87406500;9.59633600;2023-02-22T00:00:07;6.27;;;3.93;;
1999;SDS011;1001;48.87406500;9.59633600;2023-02-22T00:02:44;5.90;;;4.27;;
1999;SDS011;1001;48.87406500;9.59633600;2023-02-22T00:05:12;5.13;;;4.27;;
1999;SDS011;1001;48.87406500;9.59633600;2023-02-22T00:07:41;5.03;;;4.20;;
1999;SDS011;1001;48.87406500;9.59633600;2023-02-22T00:10:08;7.73;;;4.57;;
1999;SDS011;1001;48.87406500;9.59633600;2023-02-22T00:12:37;7.13;;;4.60;;
1999;SDS011;1001;48.87406500;9.59633600;2023-02-22T00:15:04;6.73;;;4.77;;
1999;SDS011;1001;48.87406500;9.59633600;2023-02-22T00:17:31;6.57;;;4.23;;
1999;SDS011;1001;48.87406500;9.59633600;2023-02-22T00:19:59;6.30;;;4.90;;
1999;SDS011;1001;48.87406500;9.59633600;2023-02-22T00:22:26;8.27;;;4.00;;
1999;SDS011;1001;48.87406500;9.59633600;2023-02-22T00:24:52;6.53;;;4.03;;
1999;SDS011;1001;48.87406500;9.59633600;2023-02-22T00:27:20;7.47;;;4.20;;
1999;SDS011;1001;48.87406500;9.59633600;2023-02-22T00:29:46;4.80;;;4.20;;
1999;SDS011;1001;48.87406500;9.59633600;2023-02-22T00:32:13;6.43;;;4.17;;
1999;SDS011;1001;48.87406500;9.59633600;2023-02-22T00:34:40;6.80;;;4.80;;
1999;SDS011;1001;48.87406500;9.59633600;2023-02-22T00:37:09;6.57;;;5.10;;
1999;SDS011;1001;48.87406500;9.59633600;2023-02-22T00:39:36;7.17;;;5.03;;
1999;SDS011;1001;48.87406500;9.59633600;2023-02-22T00:42:02;5.57;;;4.50;;
1999;SDS011;1001;48.87406500;9.59633600;2023-02-22T00:44:29;6.87;;;5.20;;
1999;SDS011;1001;48.87406500;9.59633600;2023-02-22T00:46:57;4.67;;;3.90;;
1999;SDS011;1001;48.87406500;9.59633600;2023-02-22T00:49:23;4.40;;;3.63;;
1999;SDS011;1001;48.87406500;9.59633600;2023-02-22T00:51:51;5.90;;;4.10;;
1999;SDS011;1001;48.87406500;9.59633600;2023-02-22T00:54:20;9.03;;;4.70;;
1999;SDS011;1001;48.87406500;9.59633600;2023-02-22T00:56:47;7.37;;;3.83;;
1999;SDS011;1001;48.87406500;9.59633600;2023-02-22T00:59:14;5.90;;;3.60;;
1999;SDS011;1001;48.87406500;9.59633600;2023-02-22T01:01:41;5.90;;;4.07;;
1999;SDS011;1001;48.87406500;9.59633600;2023-02-22T01:04:08;4.80;;;3.90;;
1999;SDS011;1001;48.87406500;9.59633600;2023-02-22T01:06:35;3.77;;;3.27;;
1999;SDS011;1001;48.87406500;9.59633600;2023-02-22T01:09:02;5.17;;;4.10;;
1999;SDS011;1001;48.87406500;9.59633600;2023-02-22T01:11:33;5.97;;;5.40;;
1999;SDS011;1001;48.87406500;9.59633600;2023-02-22T01:13:59;4.80;;;3.00;;
1999;SDS011;1001;48.87406500;9.59633600;2023-02-22T01:16:26;4.77;;;2.70;;
1999;SDS011;1001;48.87406500;9.59633600;2023-02-22T01:18:53;5.07;;;3.13;;
1999;SDS011;1001;48.87406500;9.59633600;2023-02-22T01:21:19;4.43;;;3.40;;
1999;SDS011;1001;48.87406500;9.59633600;2023-02-22T01:23:46;5.03;;;2.63;;
1999;SDS011;1001;48.87406500;9.59633600;2023-02-22T01:26:12;5.43;;;3.53;;
1999;SDS011;1001;48.87406500;9.59633600;2023-02-22T01:28:40;9.50;;;3.97;;
1999;SDS011;1001;48.87406500;9.59633600;2023-02-22T01:31:07;3.97;;;2.83;;
1999;SDS011;1001;48.87406500;9.59633600;2023-02-22T01:33:34;3.97;;;2.93;;
1999;SDS011;1001;48.87406500;9.59633600;2023-02-22T01:36:00;4.50;;;3.10;;
1999;SDS011;1001;48.87406500;9.59633600;2023-02-22T01:38:27;6.37;;;3.30;;
1999;SDS011;1001;48.87406500;9.59633600;2023-02-22T01:40:54;7.57;;;4.70;;
1999;SDS011;1001;48.87406500;9.59633600;2023-02-22T01:43:21;4.13;;;3.57;;
1999;SDS011;1001;48.87406500;9.59633600;2023-02-22T01:45:55;4.47;;;3.20;;
1999;SDS011;1001;48.87406500;9.59633600;2023-02-22T01:48:28;4.50;;;3.40;;
1999;SDS011;1001;48.87406500;9.59633600;2023-02-22T01:51:00;3.90;;;3.00;;
1999;SDS011;1001;48.87406500;9.59633600;2023-02-22T01:53:35;5.80;;;3.97;;
1999;SDS011;1001;48.87406500;9.59633600;2023-02-22T01:56:05;4.70;;;3.70;;
1999;SDS011;1001;48.87406500;9.59633600;2023-02-22T01:58:32;5.43;;;3.43;;
1999;SDS011;1001;48.87406500;9.59633600;2023-02-22T02:01:03;4.63;;;3.50;;
1999;SDS011;1001;48.87406500;9.59633600;2023-02-22T02:03:31;7.93;;;4.00;;
1999;SDS011;1001;48.87406500;9.59633600;2023-02-22T02:06:01;6.33;;;3.40;;
1999;SDS011;1001;48.87406500;9.59633600;2023-02-22T02:08:32;5.53;;;3.90;;
1999;SDS011;1001;48.87406500;9.59633600;2023-02-22T02:11:03;3.77;;;3.13;;
1999;SDS011;1001;48.87406500;9.59633600;2023-02-22T02:13:31;4.80;;;3.20;;
1999;SDS011;1001;48.87406500;9.59633600;2023-02-22T02:15:57;5.33;;;3.13;;
1999;SDS011;1001;48.87406500;9.59633600;2023-02-22T02:18:25;7.50;;;3.70;;
1999;SDS011;1001;48.87406500;9.59633600;2023-02-22T02:21:07;4.33;;;3.53;;
1999;SDS011;1001;48.87406500;9.59633600;2023-02-22T02:24:04;6.97;;;4.50;;
1999;SDS011;1001;48.87406500;9.59633600;2023-02-22T02:26:49;5.60;;;3.10;;
1999;SDS011;1001;48.87406500;9.59633600;2023-02-22T02:29:36;6.00;;;3.70;;
1999;SDS011;1001;48.87406500;9.59633600;2023-02-22T02:32:31;5.77;;;2.93;;
1999;SDS011;1001;48.87406500;9.59633600;2023-02-22T02:35:06;5.67;;;3.37;;
1999;SDS011;1001;48.87406500;9.59633600;2023-02-22T02:37:39;6.27;;;3.40;;
1999;SDS011;1001;48.87406500;9.59633600;2023-02-22T02:40:14;4.70;;;3.70;;
1999;SDS011;1001;48.87406500;9.59633600;2023-02-22T02:42:49;5.03;;;3.17;;
1999;SDS011;1001;48.87406500;9.59633600;2023-02-22T02:45:21;5.77;;;3.80;;
1999;SDS011;1001;48.87406500;9.59633600;2023-02-22T02:47:53;5.23;;;3.60;;
1999;SDS011;1001;48.87406500;9.59633600;2023-02-22T02:50:24;4.60;;;3.60;;
1999;SDS011;1001;48.87406500;9.59633600;2023-02-22T02:52:55;4.80;;;4.10;;
1999;SDS011;1001;48.87406500;9.59633600;2023-02-22T02:55:26;4.70;;;4.20;;
1999;SDS011;1001;48.87406500;9.59633600;2023-02-22T02:57:54;6.83;;;4.57;;
1999;SDS011;1001;48.87406500;9.59633600;2023-02-22T03:00:21;5.77;;;4.00;;
1999;SDS011;1001;48.87406500;9.59633600;2023-02-22T03:03:06;4.90;;;3.73;;
1999;SDS011;1001;48.87406500;9.59633600;2023-02-22T03:05:54;5.70;;;3.67;;
1999;SDS011;1001;48.87406500;9.59633600;2023-02-22T03:08:36;6.30;;;4.80;;
1999;SDS011;1001;48.87406500;9.59633600;2023-02-22T03:11:09;5.00;;;3.70;;
1999;SDS011;1001;48.87406500;9.59633600;2023-02-22T03:13:40;6.00;;;4.73;;
1999;SDS011;1001;48.87406500;9.59633600;2023-02-22T03:16:17;5.90;;;4.50;;
1999;SDS011;1001;48.87406500;9.59633600;2023-02-22T03:18:53;7.23;;;5.10;;
1999;SDS011;1001;48.87406500;9.59633600;2023-02-22T03:21:26;7.10;;;4.70;;
1999;SDS011;1001;48.87406500;9.59633600;2023-02-22T03:24:00;6.63;;;5.63;;
1999;SDS011;1001;48.87406500;9.59633600;2023-02-22T03:26:34;6.70;;;4.70;;
1999;SDS011;1001;48.87406500;9.59633600;2023-02-22T03:29:05;5.63;;;4.73;;
1999;SDS011;1001;48.87406500;9.59633600;2023-02-22T03:31:37;8.67;;;4.57;;
1999;SDS011;1001;48.87406500;9.59633600;2023-02-22T03:34:09;7.00;;;4.53;;
1999;SDS011;1001;48.87406500;9.59633600;2023-02-22T03:36:41;5.00;;;4.13;;
1999;SDS011;1001;48.87406500;9.59633600;2023-02-22T03:39:13;6.77;;;4.70;;
1999;SDS011;1001;48.87406500;9.59633600;2023-02-22T03:41:42;7.00;;;4.13;;
1999;SDS011;1001;48.87406500;9.59633600;2023-02-22T03:44:16;6.83;;;5.70;;
1999;SDS011;1001;48.87406500;9.59633600;2023-02-22T03:46:46;6.53;;;4.60;;
1999;SDS011;1001;48.87406500;9.59633600;2023-02-22T03:49:17;5.77;;;4.97;;
1999;SDS011;1001;48.87406500;9.59633600;2023-02-22T03:51:49;5.37;;;4.40;;
1999;SDS011;1001;48.87406500;9.59633600;2023-02-22T03:54:16;5.60;;;3.90;;
1999;SDS011;1001;48.87406500;9.59633600;2023-02-22T03:56:44;6.93;;;4.83;;
1999;SDS011;1001;48.87406500;9.59633600;2023-02-22T03:59:16;7.07;;;4.13;;
1999;SDS011;1001;48.87406500;9.59633600;2023-02-22T04:01:43;12.73;;;4.73;;
1999;SDS011;1001;48.87406500;9.59633600;2023-02-22T04:04:09;7.13;;;4.47;;
1999;SDS011;1001;48.87406500;9.59633600;2023-02-22T04:06:37;7.67;;;5.63;;
1999;SDS011;1001;48.87406500;9.59633600;2023-02-22T04:09:04;7.07;;;5.07;;
1999;SDS011;1001;48.87406500;9.59633600;2023-02-22T04:11:32;6.67;;;4.90;;
1999;SDS011;1001;48.87406500;9.59633600;2023-02-22T04:13:59;5.47;;;4.63;;
1999;SDS011;1001;48.87406500;9.59633600;2023-02-22T04:16:25;5.87;;;5.03;;
1999;SDS011;1001;48.87406500;9.59633600;2023-02-22T04:18:52;8.67;;;4.73;;
1999;SDS011;1001;48.87406500;9.59633600;2023-02-22T04:21:19;6.63;;;4.20;;
1999;SDS011;1001;48.87406500;9.59633600;2023-02-22T04:23:47;6.33;;;4.50;;
1999;SDS011;1001;48.87406500;9.59633600;2023-02-22T04:26:13;6.80;;;4.60;;
1999;SDS011;1001;48.87406500;9.59633600;2023-02-22T04:28:40;5.20;;;4.10;;
1999;SDS011;1001;48.87406500;9.59633600;2023-02-22T04:31:06;6.40;;;4.23;;
1999;SDS011;1001;48.87406500;9.59633600;2023-02-22T04:33:33;8.07;;;4.53;;
1999;SDS011;1001;48.87406500;9.59633600;2023-02-22T04:36:00;6.53;;;4.60;;
1999;SDS011;1001;48.87406500;9.59633600;2023-02-22T04:38:27;5.40;;;4.17;;
1999;SDS011;1001;48.87406500;9.59633600;2023-02-22T04:40:54;6.67;;;4.53;;
1999;SDS011;1001;48.87406500;9.59633600;2023-02-22T04:43:21;9.27;;;4.90;;
1999;SDS011;1001;48.87406500;9.59633600;2023-02-22T04:45:48;7.97;;;4.30;;
1999;SDS011;1001;48.87406500;9.59633600;2023-02-22T04:48:14;7.00;;;4.30;;
1999;SDS011;1001;48.87406500;9.59633600;2023-02-22T04:50:41;8.03;;;4.30;;
1999;SDS011;1001;48.87406500;9.59633600;2023-02-22T04:53:08;6.27;;;3.80;;
1999;SDS011;1001;48.87406500;9.59633600;2023-02-22T04:55:34;5.47;;;4.13;;
1999;SDS011;1001;48.87406500;9.59633600;2023-02-22T04:58:02;4.00;;;3.43;;
1999;SDS011;1001;48.87406500;9.59633600;2023-02-22T05:00:29;6.37;;;4.33;;
1999;SDS011;1001;48.87406500;9.59633600;2023-02-22T05:02:55;8.10;;;4.20;;
1999;SDS011;1001;48.87406500;9.59633600;2023-02-22T05:05:22;6.23;;;3.90;;
1999;SDS011;1001;48.87406500;9.59633600;2023-02-22T05:07:49;5.87;;;4.07;;
1999;SDS011;1001;48.87406500;9.59633600;2023-02-22T05:10:16;5.43;;;4.03;;
1999;SDS011;1001;48.87406500;9.59633600;2023-02-22T05:12:43;6.43;;;4.87;;
1999;SDS011;1001;48.87406500;9.59633600;2023-02-22T05:15:14;6.67;;;4.10;;
1999;SDS011;1001;48.87406500;9.59633600;2023-02-22T05:17:42;7.30;;;4.47;;
1999;SDS011;1001;48.87406500;9.59633600;2023-02-22T05:20:09;4.83;;;3.93;;
1999;SDS011;1001;48.87406500;9.59633600;2023-02-22T05:22:43;5.83;;;3.77;;
1999;SDS011;1001;48.87406500;9.59633600;2023-02-22T05:25:09;6.63;;;5.00;;
1999;SDS011;1001;48.87406500;9.59633600;2023-02-22T05:27:36;6.07;;;5.47;;
1999;SDS011;1001;48.87406500;9.59633600;2023-02-22T05:30:03;6.30;;;4.37;;
1999;SDS011;1001;48.87406500;9.59633600;2023-02-22T05:32:34;7.93;;;4.47;;
1999;SDS011;1001;48.87406500;9.59633600;2023-02-22T05:35:01;6.37;;;5.03;;
1999;SDS011;1001;48.87406500;9.59633600;2023-02-22T05:37:27;7.07;;;4.53;;
1999;SDS011;1001;48.87406500;9.59633600;2023-02-22T05:39:54;8.83;;;5.03;;
1999;SDS011;1001;48.87406500;9.59633600;2023-02-22T05:42:20;8.87;;;5.10;;
1999;SDS011;1001;48.87406500;9.59633600;2023-02-22T05:44:47;7.67;;;4.93;;
1999;SDS011;1001;48.87406500;9.59633600;2023-02-22T05:47:14;7.30;;;4.83;;
1999;SDS011;1001;48.87406500;9.59633600;2023-02-22T05:49:42;6.97;;;4.23;;
1999;SDS011;1001;48.87406500;9.59633600;2023-02-22T05:52:08;6.47;;;4.97;;
1999;SDS011;1001;48.87406500;9.59633600;2023-02-22T05:54:35;7.17;;;4.77;;
1999;SDS011;1001;48.87406500;9.59633600;2023-02-22T05:57:01;7.33;;;4.60;;
1999;SDS011;1001;48.87406500;9.59633600;2023-02-22T05:59:28;6.63;;;4.70;;
1999;SDS011;1001;48.87406500;9.59633600;2023-02-22T06:01:55;6.50;;;4.60;;
1999;SDS011;1001;48.87406500;9.59633600;2023-02-22T06:04:21;9.90;;;5.20;;
1999;SDS011;1001;48.87406500;9.59633600;2023-02-22T06:06:49;8.37;;;5.23;;
1999;SDS011;1001;48.87406500;9.59633600;2023-02-22T06:09:16;7.90;;;5.13;;
1999;SDS011;1001;48.87406500;9.59633600;2023-02-22T06:11:42;11.23;;;5.47;;
1999;SDS011;1001;48.87406500;9.59633600;2023-02-22T06:14:09;10.87;;;5.50;;
1999;SDS011;1001;48.87406500;9.59633600;2023-02-22T06:16:35;9.40;;;5.20;;
1999;SDS011;1001;48.87406500;9.59633600;2023-02-22T06:19:02;6.30;;;5.00;;
1999;SDS011;1001;48.87406500;9.59633600;2023-02-22T06:21:28;7.63;;;5.40;;
1999;SDS011;1001;48.87406500;9.59633600;2023-02-22T06:23:56;6.67;;;4.53;;
1999;SDS011;1001;48.87406500;9.59633600;2023-02-22T06:26:23;8.13;;;5.33;;
1999;SDS011;1001;48.87406500;9.59633600;2023-02-22T06:28:49;6.47;;;4.07;;
1999;SDS011;1001;48.87406500;9.59633600;2023-02-22T06:31:16;7.77;;;5.30;;
1999;SDS011;1001;48.87406500;9.59633600;2023-02-22T06:33:43;7.77;;;5.67;;
1999;SDS011;1001;48.87406500;9.59633600;2023-02-22T06:36:09;6.87;;;4.90;;
1999;SDS011;1001;48.87406500;9.59633600;2023-02-22T06:38:36;7.20;;;4.80;;
1999;SDS011;1001;48.87406500;9.59633600;2023-02-22T06:41:04;8.30;;;5.67;;
1999;SDS011;1001;48.87406500;9.59633600;2023-02-22T06:43:30;9.47;;;4.63;;
1999;SDS011;1001;48.87406500;9.59633600;2023-02-22T06:45:57;8.50;;;4.80;;
1999;SDS011;1001;48.87406500;9.59633600;2023-02-22T06:48:23;6.90;;;5.47;;
1999;SDS011;1001;48.87406500;9.59633600;2023-02-22T06:50:50;9.10;;;4.40;;
1999;SDS011;1001;48.87406500;9.59633600;2023-02-22T06:53:17;7.23;;;5.00;;
1999;SDS011;1001;48.87406500;9.59633600;2023-02-22T06:55:43;8.33;;;6.27;;
1999;SDS011;1001;48.87406500;9.59633600;2023-02-22T06:58:11;8.83;;;6.03;;
1999;SDS011;1001;48.87406500;9.59633600;2023-02-22T07:00:38;7.50;;;5.37;;
1999;SDS011;1001;48.87406500;9.59633600;2023-02-22T07:03:04;7.23;;;5.10;;
1999;SDS011;1001;48.87406500;9.59633600;2023-02-22T07:05:31;9.67;;;6.00;;
1999;SDS011;1001;48.87406500;9.59633600;2023-02-22T07:08:00;7.57;;;6.10;;
1999;SDS011;1001;48.87406500;9.59633600;2023-02-22T07:10:30;7.30;;;4.80;;
1999;SDS011;1001;48.87406500;9.59633600;2023-02-22T07:12:57;6.03;;;4.80;;
1999;SDS011;1001;48.87406500;9.59633600;2023-02-22T07:15:26;8.63;;;5.57;;
1999;SDS011;1001;48.87406500;9.59633600;2023-02-22T07:17:54;7.60;;;5.43;;
1999;SDS011;1001;48.87406500;9.59633600;2023-02-22T07:20:25;10.63;;;6.03;;
1999;SDS011;1001;48.87406500;9.59633600;2023-02-22T07:22:53;9.87;;;6.07;;
1999;SDS011;1001;48.87406500;9.59633600;2023-02-22T07:25:20;8.80;;;5.30;;
1999;SDS011;1001;48.87406500;9.59633600;2023-02-22T07:27:48;9.47;;;5.77;;
1999;SDS011;1001;48.87406500;9.59633600;2023-02-22T07:30:16;7.63;;;5.20;;
1999;SDS011;1001;48.87406500;9.59633600;2023-02-22T07:32:46;11.60;;;5.60;;
1999;SDS011;1001;48.87406500;9.59633600;2023-02-22T07:35:13;9.23;;;4.33;;
1999;SDS011;1001;48.87406500;9.59633600;2023-02-22T07:37:41;6.60;;;4.50;;
1999;SDS011;1001;48.87406500;9.59633600;2023-02-22T07:40:08;9.20;;;4.60;;
1999;SDS011;1001;48.87406500;9.59633600;2023-02-22T07:42:48;5.87;;;4.07;;
1999;SDS011;1001;48.87406500;9.59633600;2023-02-22T07:45:16;7.73;;;5.50;;
1999;SDS011;1001;48.87406500;9.59633600;2023-02-22T07:47:42;5.83;;;4.70;;
1999;SDS011;1001;48.87406500;9.59633600;2023-02-22T07:50:12;6.13;;;4.13;;
1999;SDS011;1001;48.87406500;9.59633600;2023-02-22T07:52:39;7.40;;;4.93;;
1999;SDS011;1001;48.87406500;9.59633600;2023-02-22T07:55:09;8.73;;;4.67;;
1999;SDS011;1001;48.87406500;9.59633600;2023-02-22T07:57:36;8.37;;;4.90;;
1999;SDS011;1001;48.87406500;9.59633600;2023-02-22T08:00:03;7.47;;;4.60;;
1999;SDS011;1001;48.87406500;9.59633600;2023-02-22T08:02:30;4.70;;;3.70;;
1999;SDS011;1001;48.87406500;9.59633600;2023-02-22T08:04:56;4.70;;;3.77;;
1999;SDS011;1001;48.87406500;9.59633600;2023-02-22T08:07:24;7.10;;;4.00;;
1999;SDS011;1001;48.87406500;9.59633600;2023-02-22T08:09:51;5.60;;;4.27;;
1999;SDS011;1001;48.87406500;9.59633600;2023-02-22T08:12:17;7.00;;;4.30;;
1999;SDS011;1001;48.87406500;9.59633600;2023-02-22T08:14:44;8.03;;;4.13;;
1999;SDS011;1001;48.87406500;9.59633600;2023-02-22T08:17:10;7.93;;;4.53;;
1999;SDS011;1001;48.87406500;9.59633600;2023-02-22T08:19:37;4.90;;;3.43;;
1999;SDS011;1001;48.87406500;9.59633600;2023-02-22T08:22:04;6.37;;;4.40;;
1999;SDS011;1001;48.87406500;9.59633600;2023-02-22T08:24:32;7.40;;;4.13;;
1999;SDS011;1001;48.87406500;9.59633600;2023-02-22T08:26:58;6.30;;;3.90;;
1999;SDS011;1001;48.87406500;9.59633600;2023-02-22T08:29:25;7.33;;;4.47;;
1999;SDS011;1001;48.87406500;9.59633600;2023-02-22T08:31:57;5.07;;;4.10;;
1999;SDS011;1001;48.87406500;9.59633600;2023-02-22T08:34:24;7.80;;;4.13;;
1999;SDS011;1001;48.87406500;9.59633600;2023-02-22T08:36:50;4.97;;;4.03;;
1999;SDS011;1001;48.87406500;9.59633600;2023-02-22T08:39:18;5.73;;;3.93;;
1999;SDS011;1001;48.87406500;9.59633600;2023-02-22T08:41:46;4.07;;;3.20;;
1999;SDS011;1001;48.87406500;9.59633600;2023-02-22T08:44:13;6.00;;;4.23;;
1999;SDS011;1001;48.87406500;9.59633600;2023-02-22T08:46:39;4.90;;;3.67;;
1999;SDS011;1001;48.87406500;9.59633600;2023-02-22T08:49:06;5.87;;;3.20;;
1999;SDS011;1001;48.87406500;9.59633600;2023-02-22T08:51:33;5.50;;;4.00;;
1999;SDS011;1001;48.87406500;9.59633600;2023-02-22T08:54:00;4.80;;;2.77;;
1999;SDS011;1001;48.87406500;9.59633600;2023-02-22T08:56:27;4.97;;;2.80;;
1999;SDS011;1001;48.87406500;9.59633600;2023-02-22T08:58:55;4.30;;;3.40;;
1999;SDS011;1001;48.87406500;9.59633600;2023-02-22T09:01:22;3.33;;;2.67;;
1999;SDS011;1001;48.87406500;9.59633600;2023-02-22T09:03:49;8.90;;;3.30;;
1999;SDS011;1001;48.87406500;9.59633600;2023-02-22T09:06:16;3.10;;;2.70;;
1999;SDS011;1001;48.87406500;9.59633600;2023-02-22T09:08:43;5.47;;;3.80;;
1999;SDS011;1001;48.87406500;9.59633600;2023-02-22T09:11:10;6.80;;;3.60;;
1999;SDS011;1001;48.87406500;9.59633600;2023-02-22T09:13:36;4.43;;;3.30;;
1999;SDS011;1001;48.87406500;9.59633600;2023-02-22T09:16:04;5.33;;;3.73;;
1999;SDS011;1001;48.87406500;9.59633600;2023-02-22T09:18:31;4.90;;;3.47;;
1999;SDS011;1001;48.87406500;9.59633600;2023-02-22T09:20:58;5.30;;;4.00;;
1999;SDS011;1001;48.87406500;9.59633600;2023-02-22T09:23:25;5.70;;;4.60;;
1999;SDS011;1001;48.87406500;9.59633600;2023-02-22T09:25:51;5.70;;;3.87;;
1999;SDS011;1001;48.87406500;9.59633600;2023-02-22T09:28:18;6.23;;;4.60;;
1999;SDS011;1001;48.87406500;9.59633600;2023-02-22T09:30:44;4.60;;;4.07;;
1999;SDS011;1001;48.87406500;9.59633600;2023-02-22T09:33:14;6.80;;;5.07;;
1999;SDS011;1001;48.87406500;9.59633600;2023-02-22T09:35:43;5.40;;;4.10;;
1999;SDS011;1001;48.87406500;9.59633600;2023-02-22T09:38:12;6.77;;;4.70;;
1999;SDS011;1001;48.87406500;9.59633600;2023-02-22T09:40:42;6.37;;;5.00;;
1999;SDS011;1001;48.87406500;9.59633600;2023-02-22T09:43:29;5.80;;;4.30;;
1999;SDS011;1001;48.87406500;9.59633600;2023-02-22T09:46:04;8.67;;;4.73;;
1999;SDS011;1001;48.87406500;9.59633600;2023-02-22T09:48:42;6.47;;;4.90;;
1999;SDS011;1001;48.87406500;9.59633600;2023-02-22T09:51:16;8.90;;;4.80;;
1999;SDS011;1001;48.87406500;9.59633600;2023-02-22T09:53:46;6.90;;;5.40;;
1999;SDS011;1001;48.87406500;9.59633600;2023-02-22T09:56:17;5.87;;;4.73;;
1999;SDS011;1001;48.87406500;9.59633600;2023-02-22T09:58:46;7.47;;;5.20;;
1999;SDS011;1001;48.87406500;9.59633600;2023-02-22T10:01:18;5.47;;;4.87;;
1999;SDS011;1001;48.87406500;9.59633600;2023-02-22T10:03:54;6.63;;;4.90;;
1999;SDS011;1001;48.87406500;9.59633600;2023-02-22T10:06:26;6.60;;;4.90;;
1999;SDS011;1001;48.87406500;9.59633600;2023-02-22T10:08:54;7.43;;;4.27;;
1999;SDS011;1001;48.87406500;9.59633600;2023-02-22T10:11:32;4.97;;;4.30;;
1999;SDS011;1001;48.87406500;9.59633600;2023-02-22T10:14:12;4.53;;;4.13;;
1999;SDS011;1001;48.87406500;9.59633600;2023-02-22T10:17:00;7.73;;;4.43;;
1999;SDS011;1001;48.87406500;9.59633600;2023-02-22T10:19:36;4.67;;;3.93;;
1999;SDS011;1001;48.87406500;9.59633600;2023-02-22T10:22:17;5.17;;;4.53;;
1999;SDS011;1001;48.87406500;9.59633600;2023-02-22T10:24:53;7.20;;;4.27;;
1999;SDS011;1001;48.87406500;9.59633600;2023-02-22T10:27:26;7.13;;;4.17;;
1999;SDS011;1001;48.87406500;9.59633600;2023-02-22T10:29:58;5.00;;;4.23;;
1999;SDS011;1001;48.87406500;9.59633600;2023-02-22T10:32:31;8.10;;;5.20;;
1999;SDS011;1001;48.87406500;9.59633600;2023-02-22T10:35:16;5.83;;;5.00;;
1999;SDS011;1001;48.87406500;9.59633600;2023-02-22T10:37:47;8.40;;;5.20;;
1999;SDS011;1001;48.87406500;9.59633600;2023-02-22T10:40:18;11.20;;;4.00;;
1999;SDS011;1001;48.87406500;9.59633600;2023-02-22T10:42:55;6.33;;;4.37;;
1999;SDS011;1001;48.87406500;9.59633600;2023-02-22T10:45:25;8.87;;;4.70;;
1999;SDS011;1001;48.87406500;9.59633600;2023-02-22T10:47:54;5.77;;;4.20;;
1999;SDS011;1001;48.87406500;9.59633600;2023-02-22T10:50:24;5.40;;;4.23;;
1999;SDS011;1001;48.87406500;9.59633600;2023-02-22T10:52:53;6.20;;;4.20;;
1999;SDS011;1001;48.87406500;9.59633600;2023-02-22T10:55:21;7.10;;;5.20;;
1999;SDS011;1001;48.87406500;9.59633600;2023-02-22T10:57:49;6.50;;;4.50;;
1999;SDS011;1001;48.87406500;9.59633600;2023-02-22T11:00:27;5.00;;;4.50;;
1999;SDS011;1001;48.87406500;9.59633600;2023-02-22T11:02:55;4.57;;;3.80;;
1999;SDS011;1001;48.87406500;9.59633600;2023-02-22T11:05:29;4.67;;;4.10;;
1999;SDS011;1001;48.87406500;9.59633600;2023-02-22T11:08:14;7.23;;;3.77;;
1999;SDS011;1001;48.87406500;9.59633600;2023-02-22T11:10:41;4.90;;;4.40;;
1999;SDS011;1001;48.87406500;9.59633600;2023-02-22T11:13:18;4.80;;;3.60;;
1999;SDS011;1001;48.87406500;9.59633600;2023-02-22T11:15:49;4.00;;;3.60;;
1999;SDS011;1001;48.87406500;9.59633600;2023-02-22T11:18:20;5.50;;;4.60;;
1999;SDS011;1001;48.87406500;9.59633600;2023-02-22T11:20:59;5.53;;;4.03;;
1999;SDS011;1001;48.87406500;9.59633600;2023-02-22T11:23:27;4.97;;;4.23;;
1999;SDS011;1001;48.87406500;9.59633600;2023-02-22T11:26:01;7.60;;;3.90;;
1999;SDS011;1001;48.87406500;9.59633600;2023-02-22T11:28:31;4.20;;;3.80;;
1999;SDS011;1001;48.87406500;9.59633600;2023-02-22T11:31:07;5.23;;;3.27;;
1999;SDS011;1001;48.87406500;9.59633600;2023-02-22T11:33:44;4.10;;;3.70;;
1999;SDS011;1001;48.87406500;9.59633600;2023-02-22T11:36:28;4.60;;;3.90;;
1999;SDS011;1001;48.87406500;9.59633600;2023-02-22T11:39:02;5.20;;;4.13;;
1999;SDS011;1001;48.87406500;9.59633600;2023-02-22T11:41:30;4.67;;;3.53;;
1999;SDS011;1001;48.87406500;9.59633600;2023-02-22T11:44:10;5.17;;;3.50;;
1999;SDS011;1001;48.87406500;9.59633600;2023-02-22T11:46:40;4.00;;;3.50;;
1999;SDS011;1001;48.87406500;9.59633600;2023-02-22T11:49:09;4.73;;;3.33;;
1999;SDS011;1001;48.87406500;9.59633600;2023-02-22T11:51:44;3.80;;;3.17;;
1999;SDS011;1001;48.87406500;9.59633600;2023-02-22T11:57:20;3.50;;;2.90;;
1999;SDS011;1001;48.87406500;9.59633600;2023-02-22T12:00:02;6.13;;;3.37;;
1999;SDS011;1001;48.87406500;9.59633600;2023-02-22T12:02:46;5.07;;;3.50;;
1999;SDS011;1001;48.87406500;9.59633600;2023-02-22T12:05:24;4.23;;;3.33;;
1999;SDS011;1001;48.87406500;9.59633600;2023-02-22T12:08:05;3.47;;;2.37;;
1999;SDS011;1001;48.87406500;9.59633600;2023-02-22T12:10:43;6.23;;;3.50;;
1999;SDS011;1001;48.87406500;9.59633600;2023-02-22T12:13:24;4.20;;;3.00;;
1999;SDS011;1001;48.87406500;9.59633600;2023-02-22T12:16:02;5.37;;;4.20;;
1999;SDS011;1001;48.87406500;9.59633600;2023-02-22T12:18:43;5.70;;;3.37;;
1999;SDS011;1001;48.87406500;9.59633600;2023-02-22T12:21:23;5.70;;;4.03;;
1999;SDS011;1001;48.87406500;9.59633600;2023-02-22T12:23:56;5.00;;;4.20;;
1999;SDS011;1001;48.87406500;9.59633600;2023-02-22T12:26:29;6.57;;;4.47;;
1999;SDS011;1001;48.87406500;9.59633600;2023-02-22T12:29:01;6.07;;;4.33;;
1999;SDS011;1001;48.87406500;9.59633600;2023-02-22T12:31:34;5.80;;;5.20;;
1999;SDS011;1001;48.87406500;9.59633600;2023-02-22T12:34:06;6.07;;;4.20;;
1999;SDS011;1001;48.87406500;9.59633600;2023-02-22T12:36:38;7.37;;;4.50;;
1999;SDS011;1001;48.87406500;9.59633600;2023-02-22T12:42:03;7.83;;;3.90;;
1999;SDS011;1001;48.87406500;9.59633600;2023-02-22T12:44:38;7.37;;;5.23;;
1999;SDS011;1001;48.87406500;9.59633600;2023-02-22T12:47:09;6.97;;;4.70;;
1999;SDS011;1001;48.87406500;9.59633600;2023-02-22T12:49:44;9.57;;;5.40;;
1999;SDS011;1001;48.87406500;9.59633600;2023-02-22T12:52:19;8.27;;;5.50;;
1999;SDS011;1001;48.87406500;9.59633600;2023-02-22T12:55:00;8.40;;;4.77;;
1999;SDS011;1001;48.87406500;9.59633600;2023-02-22T12:57:35;11.43;;;6.23;;
1999;SDS011;1001;48.87406500;9.59633600;2023-02-22T13:00:08;9.97;;;6.23;;
1999;SDS011;1001;48.87406500;9.59633600;2023-02-22T13:02:44;9.10;;;5.53;;
1999;SDS011;1001;48.87406500;9.59633600;2023-02-22T13:05:17;8.60;;;5.47;;
1999;SDS011;1001;48.87406500;9.59633600;2023-02-22T13:07:46;10.17;;;5.33;;
1999;SDS011;1001;48.87406500;9.59633600;2023-02-22T13:13:16;7.00;;;5.90;;
1999;SDS011;1001;48.87406500;9.59633600;2023-02-22T13:15:49;6.43;;;5.60;;
1999;SDS011;1001;48.87406500;9.59633600;2023-02-22T13:18:24;6.23;;;5.33;;
1999;SDS011;1001;48.87406500;9.59633600;2023-02-22T13:20:58;9.30;;;6.33;;
1999;SDS011;1001;48.87406500;9.59633600;2023-02-22T13:23:32;7.43;;;5.27;;
1999;SDS011;1001;48.87406500;9.59633600;2023-02-22T13:26:08;7.57;;;5.53;;
1999;SDS011;1001;48.87406500;9.59633600;2023-02-22T13:28:42;7.67;;;5.90;;
1999;SDS011;1001;48.87406500;9.59633600;2023-02-22T13:31:20;5.90;;;4.80;;
1999;SDS011;1001;48.87406500;9.59633600;2023-02-22T13:34:11;8.10;;;5.10;;
1999;SDS011;1001;48.87406500;9.59633600;2023-02-22T13:36:56;7.30;;;5.47;;